sensor_id;sensor_type;location;lat;lon;timestamp;pressure;altitude;pressure_sealevel;temperature;humidity
74169;BME280;62523;53.336;83.690;2023-08-17T00:02:07;98971.59;;;12.62;100.00
74169;BME280;62523;53.336;83.690;2023-08-17T00:07:09;98979.59;;;12.86;100.00
74169;BME280;62523;53.336;83.690;2023-08-17T00:12:10;98985.38;;;13.41;100.00
74169;BME280;62523;53.336;83.690;2023-08-17T00:17:12;98970.25;;;14.13;100.00
74169;BME280;62523;53.336;83.690;2023-08-17T00:22:13;98985.47;;;13.63;100.00
74169;BME280;62523;53.336;83.690;2023-08-17T00:27:15;98990.50;;;13.18;100.00
74169;BME280;62523;53.336;83.690;2023-08-17T00:32:18;99004.16;;;13.97;100.00
74169;BME280;62523;53.336;83.690;2023-08-17T00:37:19;99005.13;;;13.48;100.00
74169;BME280;62523;53.336;83.690;2023-08-17T00:42:21;99020.22;;;13.22;100.00
74169;BME280;62523;53.336;83.690;2023-08-17T00:47:24;99034.13;;;13.13;100.00
74169;BME280;62523;53.336;83.690;2023-08-17T00:52:26;99048.72;;;13.05;100.00
74169;BME280;62523;53.336;83.690;2023-08-17T00:57:28;99053.16;;;13.05;100.00
74169;BME280;62523;53.336;83.690;2023-08-17T01:02:31;99056.53;;;13.07;100.00
74169;BME280;62523;53.336;83.690;2023-08-17T01:07:32;99058.75;;;13.13;100.00
74169;BME280;62523;53.336;83.690;2023-08-17T01:12:39;99061.41;;;13.63;100.00
74169;BME280;62523;53.336;83.690;2023-08-17T01:17:52;99062.88;;;13.17;100.00
74169;BME280;62523;53.336;83.690;2023-08-17T01:23:04;99066.56;;;13.40;100.00
74169;BME280;62523;53.336;83.690;2023-08-17T01:28:07;99077.91;;;13.90;100.00
74169;BME280;62523;53.336;83.690;2023-08-17T01:33:11;99055.81;;;14.49;100.00
74169;BME280;62523;53.336;83.690;2023-08-17T01:38:18;99063.34;;;14.20;100.00
74169;BME280;62523;53.336;83.690;2023-08-17T01:43:22;99066.28;;;14.98;100.00
74169;BME280;62523;53.336;83.690;2023-08-17T01:48:24;99063.66;;;14.51;100.00
74169;BME280;62523;53.336;83.690;2023-08-17T01:53:26;99066.09;;;14.54;100.00
74169;BME280;62523;53.336;83.690;2023-08-17T01:58:28;99075.53;;;14.34;100.00
74169;BME280;62523;53.336;83.690;2023-08-17T02:03:30;99082.72;;;14.56;100.00
74169;BME280;62523;53.336;83.690;2023-08-17T02:08:33;99084.41;;;14.57;100.00
74169;BME280;62523;53.336;83.690;2023-08-17T02:13:36;99096.81;;;14.21;100.00
74169;BME280;62523;53.336;83.690;2023-08-17T02:18:38;99093.47;;;14.66;100.00
74169;BME280;62523;53.336;83.690;2023-08-17T02:23:40;99086.03;;;14.82;100.00
74169;BME280;62523;53.336;83.690;2023-08-17T02:28:42;99084.69;;;14.99;100.00
74169;BME280;62523;53.336;83.690;2023-08-17T02:33:44;99083.16;;;15.08;100.00
74169;BME280;62523;53.336;83.690;2023-08-17T02:38:45;99089.28;;;14.74;100.00
74169;BME280;62523;53.336;83.690;2023-08-17T02:43:47;99095.41;;;14.75;100.00
74169;BME280;62523;53.336;83.690;2023-08-17T02:48:49;99089.25;;;15.42;100.00
74169;BME280;62523;53.336;83.690;2023-08-17T02:53:53;99084.34;;;15.04;100.00
74169;BME280;62523;53.336;83.690;2023-08-17T02:58:55;99092.66;;;14.99;100.00
74169;BME280;62523;53.336;83.690;2023-08-17T03:03:57;99100.38;;;15.02;100.00
74169;BME280;62523;53.336;83.690;2023-08-17T03:08:58;99107.84;;;15.42;100.00
74169;BME280;62523;53.336;83.690;2023-08-17T03:14:00;99105.81;;;15.23;100.00
74169;BME280;62523;53.336;83.690;2023-08-17T03:19:03;99118.31;;;15.55;100.00
74169;BME280;62523;53.336;83.690;2023-08-17T03:24:07;99118.38;;;15.21;100.00
74169;BME280;62523;53.336;83.690;2023-08-17T03:29:09;99116.91;;;15.28;100.00
74169;BME280;62523;53.336;83.690;2023-08-17T03:34:11;99129.81;;;15.22;100.00
74169;BME280;62523;53.336;83.690;2023-08-17T03:39:13;99134.25;;;15.10;100.00
74169;BME280;62523;53.336;83.690;2023-08-17T03:44:15;99140.75;;;14.83;100.00
74169;BME280;62523;53.336;83.690;2023-08-17T03:49:17;99150.69;;;15.04;100.00
74169;BME280;62523;53.336;83.690;2023-08-17T03:54:19;99166.41;;;14.71;100.00
74169;BME280;62523;53.336;83.690;2023-08-17T03:59:22;99163.94;;;14.57;100.00
74169;BME280;62523;53.336;83.690;2023-08-17T04:04:23;99173.84;;;14.42;100.00
74169;BME280;62523;53.336;83.690;2023-08-17T04:09:25;99163.66;;;14.84;100.00
74169;BME280;62523;53.336;83.690;2023-08-17T04:14:27;99158.72;;;14.91;100.00
74169;BME280;62523;53.336;83.690;2023-08-17T04:19:30;99155.72;;;14.95;100.00
74169;BME280;62523;53.336;83.690;2023-08-17T04:24:32;99156.19;;;15.01;100.00
74169;BME280;62523;53.336;83.690;2023-08-17T04:29:34;99134.13;;;15.56;100.00
74169;BME280;62523;53.336;83.690;2023-08-17T04:34:38;99109.38;;;15.79;100.00
74169;BME280;62523;53.336;83.690;2023-08-17T04:39:39;99110.25;;;15.79;100.00
74169;BME280;62523;53.336;83.690;2023-08-17T04:44:43;99118.00;;;16.03;100.00
74169;BME280;62523;53.336;83.690;2023-08-17T04:49:46;99109.13;;;16.67;100.00
74169;BME280;62523;53.336;83.690;2023-08-17T04:54:48;99119.69;;;16.78;100.00
74169;BME280;62523;53.336;83.690;2023-08-17T04:59:49;99105.81;;;16.54;100.00
74169;BME280;62523;53.336;83.690;2023-08-17T05:04:52;99112.00;;;16.54;100.00
74169;BME280;62523;53.336;83.690;2023-08-17T05:09:54;99117.88;;;16.37;100.00
74169;BME280;62523;53.336;83.690;2023-08-17T05:14:56;99107.59;;;16.86;100.00
74169;BME280;62523;53.336;83.690;2023-08-17T05:19:57;99106.00;;;16.62;100.00
74169;BME280;62523;53.336;83.690;2023-08-17T05:24:59;99097.50;;;17.10;100.00
74169;BME280;62523;53.336;83.690;2023-08-17T05:30:03;99100.94;;;17.32;100.00
74169;BME280;62523;53.336;83.690;2023-08-17T05:35:06;99092.50;;;17.27;100.00
74169;BME280;62523;53.336;83.690;2023-08-17T05:40:08;99084.84;;;18.03;100.00
74169;BME280;62523;53.336;83.690;2023-08-17T05:45:10;99086.50;;;18.43;100.00
74169;BME280;62523;53.336;83.690;2023-08-17T05:50:11;99082.63;;;18.18;100.00
74169;BME280;62523;53.336;83.690;2023-08-17T05:55:13;99096.47;;;17.83;100.00
74169;BME280;62523;53.336;83.690;2023-08-17T06:00:14;99094.09;;;17.99;100.00
74169;BME280;62523;53.336;83.690;2023-08-17T06:05:17;99083.25;;;19.16;100.00
74169;BME280;62523;53.336;83.690;2023-08-17T06:10:19;99087.25;;;18.35;100.00
74169;BME280;62523;53.336;83.690;2023-08-17T06:15:22;99083.13;;;18.41;100.00
74169;BME280;62523;53.336;83.690;2023-08-17T06:20:24;99077.38;;;18.55;100.00
74169;BME280;62523;53.336;83.690;2023-08-17T06:25:25;99083.16;;;19.08;100.00
74169;BME280;62523;53.336;83.690;2023-08-17T06:30:27;99081.19;;;18.53;100.00
74169;BME280;62523;53.336;83.690;2023-08-17T06:35:28;99088.38;;;18.33;100.00
74169;BME280;62523;53.336;83.690;2023-08-17T06:40:30;99099.97;;;17.83;100.00
74169;BME280;62523;53.336;83.690;2023-08-17T06:45:32;99088.66;;;18.00;100.00
74169;BME280;62523;53.336;83.690;2023-08-17T06:50:33;99093.41;;;17.97;100.00
74169;BME280;62523;53.336;83.690;2023-08-17T06:55:35;99087.66;;;18.11;100.00
74169;BME280;62523;53.336;83.690;2023-08-17T07:00:37;99081.75;;;17.88;100.00
74169;BME280;62523;53.336;83.690;2023-08-17T07:05:41;99074.19;;;18.13;100.00
74169;BME280;62523;53.336;83.690;2023-08-17T07:10:43;99067.72;;;18.25;100.00
74169;BME280;62523;53.336;83.690;2023-08-17T07:15:53;99088.06;;;18.36;100.00
74169;BME280;62523;53.336;83.690;2023-08-17T07:20:55;99090.44;;;18.19;100.00
74169;BME280;62523;53.336;83.690;2023-08-17T07:25:57;99074.03;;;18.44;100.00
74169;BME280;62523;53.336;83.690;2023-08-17T07:30:59;99092.69;;;17.95;100.00
74169;BME280;62523;53.336;83.690;2023-08-17T07:36:00;99090.94;;;17.65;100.00
74169;BME280;62523;53.336;83.690;2023-08-17T07:41:02;99094.97;;;17.59;100.00
74169;BME280;62523;53.336;83.690;2023-08-17T07:46:04;99095.97;;;17.58;100.00
74169;BME280;62523;53.336;83.690;2023-08-17T07:51:05;99090.78;;;17.56;100.00
74169;BME280;62523;53.336;83.690;2023-08-17T07:56:07;99087.44;;;17.74;100.00
74169;BME280;62523;53.336;83.690;2023-08-17T08:01:08;99087.00;;;17.59;100.00
74169;BME280;62523;53.336;83.690;2023-08-17T08:06:10;99078.34;;;17.67;100.00
74169;BME280;62523;53.336;83.690;2023-08-17T08:11:11;99081.91;;;17.96;100.00
74169;BME280;62523;53.336;83.690;2023-08-17T08:16:13;99090.72;;;18.07;100.00
74169;BME280;62523;53.336;83.690;2023-08-17T08:21:14;99097.53;;;17.60;100.00
74169;BME280;62523;53.336;83.690;2023-08-17T08:26:16;99113.91;;;17.15;100.00
74169;BME280;62523;53.336;83.690;2023-08-17T08:31:17;99111.81;;;17.19;100.00
74169;BME280;62523;53.336;83.690;2023-08-17T08:36:19;99092.56;;;17.36;100.00
74169;BME280;62523;53.336;83.690;2023-08-17T08:41:21;99087.38;;;17.04;100.00
74169;BME280;62523;53.336;83.690;2023-08-17T08:46:26;99095.63;;;17.32;100.00
74169;BME280;62523;53.336;83.690;2023-08-17T08:51:31;99110.88;;;17.80;100.00
74169;BME280;62523;53.336;83.690;2023-08-17T08:56:35;99088.22;;;18.15;100.00
74169;BME280;62523;53.336;83.690;2023-08-17T09:01:39;99073.47;;;18.11;100.00
74169;BME280;62523;53.336;83.690;2023-08-17T09:06:42;99068.53;;;18.45;100.00
74169;BME280;62523;53.336;83.690;2023-08-17T09:11:44;99076.16;;;18.11;100.00
74169;BME280;62523;53.336;83.690;2023-08-17T09:16:45;99080.75;;;17.89;100.00
74169;BME280;62523;53.336;83.690;2023-08-17T09:21:47;99077.69;;;17.94;100.00
74169;BME280;62523;53.336;83.690;2023-08-17T09:26:49;99091.44;;;18.38;100.00
74169;BME280;62523;53.336;83.690;2023-08-17T09:31:50;99083.31;;;18.30;100.00
74169;BME280;62523;53.336;83.690;2023-08-17T09:36:52;99073.75;;;18.56;100.00
74169;BME280;62523;53.336;83.690;2023-08-17T09:41:55;99090.75;;;18.36;100.00
74169;BME280;62523;53.336;83.690;2023-08-17T09:46:56;99092.31;;;18.09;100.00
74169;BME280;62523;53.336;83.690;2023-08-17T09:52:00;99104.63;;;18.39;100.00
74169;BME280;62523;53.336;83.690;2023-08-17T09:57:04;99095.38;;;18.24;100.00
74169;BME280;62523;53.336;83.690;2023-08-17T10:02:17;99095.66;;;18.21;100.00
74169;BME280;62523;53.336;83.690;2023-08-17T10:07:26;99105.88;;;18.26;100.00
74169;BME280;62523;53.336;83.690;2023-08-17T10:12:36;99121.19;;;18.04;100.00
74169;BME280;62523;53.336;83.690;2023-08-17T10:23:14;99121.19;;;18.14;100.00
74169;BME280;62523;53.336;83.690;2023-08-17T10:28:17;99120.38;;;18.13;100.00
74169;BME280;62523;53.336;83.690;2023-08-17T10:33:19;99097.72;;;18.76;100.00
74169;BME280;62523;53.336;83.690;2023-08-17T10:38:21;99082.66;;;19.32;100.00
74169;BME280;62523;53.336;83.690;2023-08-17T10:43:32;99089.78;;;19.31;100.00
74169;BME280;62523;53.336;83.690;2023-08-17T10:48:34;99089.63;;;19.05;100.00
74169;BME280;62523;53.336;83.690;2023-08-17T10:53:36;99091.44;;;18.28;100.00
74169;BME280;62523;53.336;83.690;2023-08-17T10:58:44;99119.22;;;18.35;100.00
74169;BME280;62523;53.336;83.690;2023-08-17T11:03:45;99109.25;;;18.47;100.00
74169;BME280;62523;53.336;83.690;2023-08-17T11:08:54;99115.88;;;18.33;100.00
74169;BME280;62523;53.336;83.690;2023-08-17T11:13:57;99088.56;;;18.69;100.00
74169;BME280;62523;53.336;83.690;2023-08-17T11:19:00;99086.22;;;18.56;100.00
74169;BME280;62523;53.336;83.690;2023-08-17T11:24:01;99081.31;;;18.51;100.00
74169;BME280;62523;53.336;83.690;2023-08-17T11:29:04;99085.84;;;18.31;100.00
74169;BME280;62523;53.336;83.690;2023-08-17T11:34:05;99088.28;;;17.65;100.00
74169;BME280;62523;53.336;83.690;2023-08-17T11:39:07;99086.00;;;17.50;100.00
74169;BME280;62523;53.336;83.690;2023-08-17T11:44:09;99109.41;;;17.56;100.00
74169;BME280;62523;53.336;83.690;2023-08-17T11:49:10;99105.03;;;17.46;100.00
74169;BME280;62523;53.336;83.690;2023-08-17T11:54:12;99103.09;;;17.48;100.00
74169;BME280;62523;53.336;83.690;2023-08-17T11:59:13;99106.19;;;17.12;100.00
74169;BME280;62523;53.336;83.690;2023-08-17T12:04:21;99110.13;;;16.87;100.00
74169;BME280;62523;53.336;83.690;2023-08-17T12:09:24;99109.91;;;17.00;100.00
74169;BME280;62523;53.336;83.690;2023-08-17T12:14:27;99099.16;;;16.81;100.00
74169;BME280;62523;53.336;83.690;2023-08-17T12:19:29;99102.63;;;17.02;100.00
74169;BME280;62523;53.336;83.690;2023-08-17T12:24:31;99102.66;;;16.81;100.00
74169;BME280;62523;53.336;83.690;2023-08-17T12:29:32;99095.66;;;16.80;100.00
74169;BME280;62523;53.336;83.690;2023-08-17T12:34:34;99102.66;;;16.81;100.00
74169;BME280;62523;53.336;83.690;2023-08-17T12:39:36;99111.66;;;16.69;100.00
74169;BME280;62523;53.336;83.690;2023-08-17T12:44:38;99115.50;;;16.55;100.00
74169;BME280;62523;53.336;83.690;2023-08-17T12:49:39;99119.69;;;16.57;100.00
74169;BME280;62523;53.336;83.690;2023-08-17T12:54:41;99125.94;;;16.68;100.00
74169;BME280;62523;53.336;83.690;2023-08-17T12:59:42;99124.81;;;16.70;100.00
74169;BME280;62523;53.336;83.690;2023-08-17T13:04:44;99123.41;;;16.66;100.00
74169;BME280;62523;53.336;83.690;2023-08-17T13:09:46;99119.38;;;16.72;100.00
74169;BME280;62523;53.336;83.690;2023-08-17T13:14:48;99113.50;;;16.89;100.00
74169;BME280;62523;53.336;83.690;2023-08-17T13:19:49;99117.88;;;16.79;100.00
74169;BME280;62523;53.336;83.690;2023-08-17T13:24:52;99126.78;;;16.68;100.00
74169;BME280;62523;53.336;83.690;2023-08-17T13:29:53;99134.31;;;16.63;100.00
74169;BME280;62523;53.336;83.690;2023-08-17T13:34:55;99137.09;;;16.62;100.00
74169;BME280;62523;53.336;83.690;2023-08-17T13:39:57;99142.13;;;16.44;100.00
74169;BME280;62523;53.336;83.690;2023-08-17T13:45:00;99152.69;;;16.34;100.00
74169;BME280;62523;53.336;83.690;2023-08-17T13:50:01;99155.28;;;16.24;100.00
74169;BME280;62523;53.336;83.690;2023-08-17T13:55:05;99156.34;;;16.22;100.00
74169;BME280;62523;53.336;83.690;2023-08-17T14:00:07;99163.91;;;16.05;100.00
74169;BME280;62523;53.336;83.690;2023-08-17T14:05:09;99164.16;;;15.91;100.00
74169;BME280;62523;53.336;83.690;2023-08-17T14:10:11;99170.72;;;15.75;100.00
74169;BME280;62523;53.336;83.690;2023-08-17T14:15:12;99167.78;;;15.67;100.00
74169;BME280;62523;53.336;83.690;2023-08-17T14:20:15;99166.97;;;15.55;100.00
74169;BME280;62523;53.336;83.690;2023-08-17T14:25:16;99180.63;;;15.51;100.00
74169;BME280;62523;53.336;83.690;2023-08-17T14:30:18;99161.16;;;15.50;100.00
74169;BME280;62523;53.336;83.690;2023-08-17T14:35:20;99156.94;;;15.48;100.00
74169;BME280;62523;53.336;83.690;2023-08-17T14:40:22;99162.16;;;15.38;100.00
74169;BME280;62523;53.336;83.690;2023-08-17T14:45:23;99172.88;;;15.36;100.00
74169;BME280;62523;53.336;83.690;2023-08-17T14:50:25;99169.25;;;15.15;100.00
74169;BME280;62523;53.336;83.690;2023-08-17T14:55:27;99169.47;;;15.12;100.00
74169;BME280;62523;53.336;83.690;2023-08-17T15:00:29;99174.19;;;15.08;100.00
74169;BME280;62523;53.336;83.690;2023-08-17T15:05:31;99177.31;;;15.02;100.00
74169;BME280;62523;53.336;83.690;2023-08-17T15:10:36;99179.72;;;15.05;100.00
74169;BME280;62523;53.336;83.690;2023-08-17T15:15:38;99174.03;;;14.99;100.00
74169;BME280;62523;53.336;83.690;2023-08-17T15:20:45;99163.78;;;14.94;100.00
74169;BME280;62523;53.336;83.690;2023-08-17T15:25:58;99170.81;;;14.95;100.00
74169;BME280;62523;53.336;83.690;2023-08-17T15:31:01;99171.28;;;15.00;100.00
74169;BME280;62523;53.336;83.690;2023-08-17T15:36:03;99168.06;;;15.08;100.00
74169;BME280;62523;53.336;83.690;2023-08-17T15:41:05;99183.34;;;15.04;100.00
74169;BME280;62523;53.336;83.690;2023-08-17T15:46:06;99185.97;;;14.93;100.00
74169;BME280;62523;53.336;83.690;2023-08-17T15:51:08;99181.53;;;15.05;100.00
74169;BME280;62523;53.336;83.690;2023-08-17T15:56:10;99174.91;;;15.10;100.00
74169;BME280;62523;53.336;83.690;2023-08-17T16:01:12;99171.53;;;15.08;100.00
74169;BME280;62523;53.336;83.690;2023-08-17T16:06:13;99166.50;;;15.17;100.00
74169;BME280;62523;53.336;83.690;2023-08-17T16:11:20;99168.63;;;15.00;100.00
74169;BME280;62523;53.336;83.690;2023-08-17T16:16:22;99169.94;;;14.94;100.00
74169;BME280;62523;53.336;83.690;2023-08-17T16:21:23;99182.97;;;14.86;100.00
74169;BME280;62523;53.336;83.690;2023-08-17T16:26:24;99185.69;;;14.73;100.00
74169;BME280;62523;53.336;83.690;2023-08-17T16:31:26;99182.16;;;14.62;100.00
74169;BME280;62523;53.336;83.690;2023-08-17T16:36:30;99184.78;;;14.62;100.00
74169;BME280;62523;53.336;83.690;2023-08-17T16:41:31;99179.50;;;14.62;100.00
74169;BME280;62523;53.336;83.690;2023-08-17T16:46:33;99182.81;;;14.52;100.00
74169;BME280;62523;53.336;83.690;2023-08-17T16:51:35;99184.34;;;14.44;100.00
74169;BME280;62523;53.336;83.690;2023-08-17T16:56:36;99195.88;;;14.43;100.00
74169;BME280;62523;53.336;83.690;2023-08-17T17:01:40;99202.97;;;14.31;100.00
74169;BME280;62523;53.336;83.690;2023-08-17T17:06:41;99208.84;;;14.34;100.00
74169;BME280;62523;53.336;83.690;2023-08-17T17:11:43;99184.13;;;14.23;100.00
74169;BME280;62523;53.336;83.690;2023-08-17T17:16:45;99178.19;;;14.19;100.00
74169;BME280;62523;53.336;83.690;2023-08-17T17:21:46;99171.03;;;14.08;100.00
74169;BME280;62523;53.336;83.690;2023-08-17T17:26:48;99156.84;;;14.09;100.00
74169;BME280;62523;53.336;83.690;2023-08-17T17:31:49;99151.31;;;14.12;100.00
74169;BME280;62523;53.336;83.690;2023-08-17T17:36:51;99161.31;;;14.09;100.00
74169;BME280;62523;53.336;83.690;2023-08-17T17:41:52;99173.22;;;13.90;100.00
74169;BME280;62523;53.336;83.690;2023-08-17T17:46:55;99170.38;;;13.81;100.00
74169;BME280;62523;53.336;83.690;2023-08-17T17:51:56;99171.78;;;13.73;100.00
74169;BME280;62523;53.336;83.690;2023-08-17T17:56:58;99186.09;;;13.71;100.00
74169;BME280;62523;53.336;83.690;2023-08-17T18:01:59;99192.25;;;13.59;100.00
74169;BME280;62523;53.336;83.690;2023-08-17T18:07:01;99194.50;;;13.52;100.00
74169;BME280;62523;53.336;83.690;2023-08-17T18:12:03;99200.63;;;13.40;100.00
74169;BME280;62523;53.336;83.690;2023-08-17T18:17:04;99203.94;;;13.30;100.00
74169;BME280;62523;53.336;83.690;2023-08-17T18:22:06;99204.00;;;13.16;100.00
74169;BME280;62523;53.336;83.690;2023-08-17T18:27:07;99212.56;;;13.20;100.00
74169;BME280;62523;53.336;83.690;2023-08-17T18:32:11;99202.63;;;13.10;100.00
74169;BME280;62523;53.336;83.690;2023-08-17T18:37:13;99194.16;;;13.05;100.00
74169;BME280;62523;53.336;83.690;2023-08-17T18:42:15;99208.00;;;12.96;100.00
74169;BME280;62523;53.336;83.690;2023-08-17T18:47:16;99198.59;;;12.92;100.00
74169;BME280;62523;53.336;83.690;2023-08-17T18:52:17;99213.09;;;12.86;100.00
74169;BME280;62523;53.336;83.690;2023-08-17T18:57:19;99218.78;;;12.80;100.00
74169;BME280;62523;53.336;83.690;2023-08-17T19:02:22;99221.94;;;12.73;100.00
74169;BME280;62523;53.336;83.690;2023-08-17T19:07:24;99211.66;;;12.68;100.00
74169;BME280;62523;53.336;83.690;2023-08-17T19:12:29;99208.50;;;12.63;100.00
74169;BME280;62523;53.336;83.690;2023-08-17T19:17:31;99219.34;;;12.58;100.00
74169;BME280;62523;53.336;83.690;2023-08-17T19:22:33;99217.22;;;12.50;100.00
74169;BME280;62523;53.336;83.690;2023-08-17T19:27:35;99225.25;;;12.49;100.00
74169;BME280;62523;53.336;83.690;2023-08-17T19:32:38;99203.38;;;12.47;100.00
74169;BME280;62523;53.336;83.690;2023-08-17T19:37:43;99211.19;;;12.48;100.00
74169;BME280;62523;53.336;83.690;2023-08-17T19:42:44;99205.47;;;12.42;100.00
74169;BME280;62523;53.336;83.690;2023-08-17T19:47:46;99212.84;;;12.37;100.00
74169;BME280;62523;53.336;83.690;2023-08-17T19:52:49;99210.75;;;12.42;100.00
74169;BME280;62523;53.336;83.690;2023-08-17T19:57:50;99219.06;;;12.36;100.00
74169;BME280;62523;53.336;83.690;2023-08-17T20:02:53;99218.31;;;12.34;100.00
74169;BME280;62523;53.336;83.690;2023-08-17T20:07:56;99219.88;;;12.23;100.00
74169;BME280;62523;53.336;83.690;2023-08-17T20:12:57;99229.50;;;12.24;100.00
74169;BME280;62523;53.336;83.690;2023-08-17T20:17:59;99223.78;;;12.18;100.00
74169;BME280;62523;53.336;83.690;2023-08-17T20:23:00;99221.59;;;12.10;100.00
74169;BME280;62523;53.336;83.690;2023-08-17T20:28:02;99224.25;;;12.10;100.00
74169;BME280;62523;53.336;83.690;2023-08-17T20:33:04;99229.06;;;12.03;100.00
74169;BME280;62523;53.336;83.690;2023-08-17T20:38:07;99219.94;;;11.95;100.00
74169;BME280;62523;53.336;83.690;2023-08-17T20:43:09;99210.22;;;11.95;100.00
74169;BME280;62523;53.336;83.690;2023-08-17T20:48:11;99222.03;;;11.90;100.00
74169;BME280;62523;53.336;83.690;2023-08-17T20:53:13;99220.59;;;11.84;100.00
74169;BME280;62523;53.336;83.690;2023-08-17T20:58:16;99223.72;;;11.76;100.00
74169;BME280;62523;53.336;83.690;2023-08-17T21:03:17;99231.66;;;11.62;100.00
74169;BME280;62523;53.336;83.690;2023-08-17T21:08:19;99232.94;;;11.55;100.00
74169;BME280;62523;53.336;83.690;2023-08-17T21:13:20;99231.44;;;11.51;100.00
74169;BME280;62523;53.336;83.690;2023-08-17T21:18:22;99230.13;;;11.43;100.00
74169;BME280;62523;53.336;83.690;2023-08-17T21:23:23;99232.38;;;11.35;100.00
74169;BME280;62523;53.336;83.690;2023-08-17T21:28:25;99230.78;;;11.33;100.00
74169;BME280;62523;53.336;83.690;2023-08-17T21:33:27;99226.72;;;11.27;100.00
74169;BME280;62523;53.336;83.690;2023-08-17T21:38:28;99224.97;;;11.27;100.00
74169;BME280;62523;53.336;83.690;2023-08-17T21:43:30;99226.16;;;11.22;100.00
74169;BME280;62523;53.336;83.690;2023-08-17T21:48:32;99223.25;;;11.26;100.00
74169;BME280;62523;53.336;83.690;2023-08-17T21:53:33;99225.03;;;11.12;100.00
74169;BME280;62523;53.336;83.690;2023-08-17T21:58:35;99222.09;;;11.02;100.00
74169;BME280;62523;53.336;83.690;2023-08-17T22:03:36;99230.84;;;11.02;100.00
74169;BME280;62523;53.336;83.690;2023-08-17T22:08:38;99226.28;;;10.90;100.00
74169;BME280;62523;53.336;83.690;2023-08-17T22:13:39;99224.63;;;10.89;100.00
74169;BME280;62523;53.336;83.690;2023-08-17T22:18:41;99229.97;;;10.88;100.00
74169;BME280;62523;53.336;83.690;2023-08-17T22:23:42;99222.25;;;10.84;100.00
74169;BME280;62523;53.336;83.690;2023-08-17T22:28:44;99230.81;;;10.88;100.00
74169;BME280;62523;53.336;83.690;2023-08-17T22:33:45;99228.16;;;10.88;100.00
74169;BME280;62523;53.336;83.690;2023-08-17T22:38:47;99226.88;;;10.95;100.00
74169;BME280;62523;53.336;83.690;2023-08-17T22:43:48;99228.41;;;10.99;100.00
74169;BME280;62523;53.336;83.690;2023-08-17T22:48:50;99233.34;;;10.90;100.00
74169;BME280;62523;53.336;83.690;2023-08-17T22:53:51;99240.78;;;10.83;100.00
74169;BME280;62523;53.336;83.690;2023-08-17T22:58:52;99239.94;;;10.82;100.00
74169;BME280;62523;53.336;83.690;2023-08-17T23:03:54;99246.91;;;10.83;100.00
74169;BME280;62523;53.336;83.690;2023-08-17T23:08:55;99240.72;;;10.99;100.00
74169;BME280;62523;53.336;83.690;2023-08-17T23:13:57;99238.84;;;11.01;100.00
74169;BME280;62523;53.336;83.690;2023-08-17T23:18:58;99239.38;;;10.92;100.00
74169;BME280;62523;53.336;83.690;2023-08-17T23:24:00;99237.78;;;10.89;100.00
74169;BME280;62523;53.336;83.690;2023-08-17T23:29:01;99242.78;;;10.94;100.00
74169;BME280;62523;53.336;83.690;2023-08-17T23:34:03;99242.88;;;10.92;100.00
74169;BME280;62523;53.336;83.690;2023-08-17T23:39:05;99242.09;;;10.90;100.00
74169;BME280;62523;53.336;83.690;2023-08-17T23:44:15;99248.13;;;10.92;100.00
74169;BME280;62523;53.336;83.690;2023-08-17T23:49:18;99245.91;;;11.00;100.00
74169;BME280;62523;53.336;83.690;2023-08-17T23:54:19;99255.53;;;11.01;100.00
74169;BME280;62523;53.336;83.690;2023-08-17T23:59:21;99246.47;;;11.05;100.00
